Bom Sucesso, Brazil
Current Conditions -  °F | °C
As of 6:00 AM on Monday 24 Nov 2014 (Local Time) from SBBQ Reporting Station
Drizzle Drizzle  
Wind Chill: 64°   Ceiling: 400
Heat Index: 64°   Visibility: 1.8mi
Dew Point: 63°   Wind: 3mph
Humidity: 94%   Direction: 110°ESE
Pressure: 30.12"   Gusts: NA
Location:  21.03°S, 44.76°W
Report Text: SBBQ 240800Z 11003KT 3000 -DZ OVC004 18/17 Q1020
Loading
Personal Weather Stations






























Interactive Weather Map New forecast layout! Learn more

10-Day Weather Forecast

Advertisements
Track Severe Weather on mobile